createdAt,value
2022-08-28T00:00:30.365Z,15.07
2022-08-28T00:02:58.879Z,11.93
2022-08-28T00:05:28.672Z,12.82
2022-08-28T00:07:58.232Z,13.35
2022-08-28T00:10:28.268Z,11.33
2022-08-28T00:12:57.696Z,12.77
2022-08-28T00:15:31.888Z,16.07
2022-08-28T00:18:00.524Z,13.23
2022-08-28T00:20:29.153Z,14.98
2022-08-28T00:22:58.117Z,11.25
2022-08-28T00:25:29.935Z,14.43
2022-08-28T00:28:00.586Z,15.30
2022-08-28T00:30:34.918Z,11.23
2022-08-28T00:33:09.282Z,19.63
2022-08-28T00:35:41.077Z,13.48
2022-08-28T00:38:09.276Z,14.20
2022-08-28T00:40:41.386Z,12.77
2022-08-28T00:43:10.140Z,18.92
2022-08-28T00:45:40.258Z,20.47
2022-08-28T00:48:08.664Z,10.53
2022-08-28T00:50:50.904Z,14.05
2022-08-28T00:53:20.134Z,17.40
2022-08-28T00:55:50.335Z,14.52
2022-08-28T00:58:20.337Z,15.15
2022-08-28T01:00:49.031Z,14.77
2022-08-28T01:03:17.320Z,14.27
2022-08-28T01:05:47.956Z,12.70
2022-08-28T01:08:16.721Z,12.65
2022-08-28T01:10:52.505Z,15.90
2022-08-28T01:13:20.794Z,12.05
2022-08-28T01:15:49.802Z,14.18
2022-08-28T01:18:18.070Z,16.77
2022-08-28T01:20:50.405Z,19.42
2022-08-28T01:23:25.335Z,10.77
2022-08-28T01:25:54.663Z,14.57
2022-08-28T01:28:22.589Z,19.27
2022-08-28T01:30:50.497Z,14.98
2022-08-28T01:33:19.540Z,13.45
2022-08-28T01:35:52.748Z,18.83
2022-08-28T01:38:21.896Z,16.20
2022-08-28T01:40:57.831Z,13.60
2022-08-28T01:43:27.727Z,16.90
2022-08-28T01:45:57.820Z,15.20
2022-08-28T01:48:27.253Z,14.75
2022-08-28T01:50:55.398Z,12.90
2022-08-28T01:53:33.045Z,19.45
2022-08-28T01:56:04.764Z,16.40
2022-08-28T01:58:37.536Z,14.02
2022-08-28T02:01:06.336Z,15.68
2022-08-28T02:03:34.634Z,13.45
2022-08-28T02:06:02.597Z,12.98
2022-08-28T02:08:30.449Z,14.17
2022-08-28T02:10:58.919Z,15.00
2022-08-28T02:13:28.324Z,14.57
2022-08-28T02:15:56.210Z,18.33
2022-08-28T02:18:24.635Z,12.35
2022-08-28T02:20:54.235Z,21.17
2022-08-28T02:23:22.387Z,16.33
2022-08-28T02:25:50.784Z,15.18
2022-08-28T02:28:18.538Z,15.32
2022-08-28T02:30:47.764Z,16.13
2022-08-28T02:33:16.293Z,18.92
2022-08-28T02:35:44.275Z,14.57
2022-08-28T02:38:12.949Z,16.13
2022-08-28T02:40:41.216Z,22.13
2022-08-28T02:43:09.249Z,15.40
2022-08-28T02:45:37.647Z,17.13
2022-08-28T02:48:11.986Z,18.08
2022-08-28T02:50:46.402Z,16.25
2022-08-28T02:53:14.131Z,18.03
2022-08-28T02:55:41.929Z,14.70
2022-08-28T02:58:10.770Z,16.02
2022-08-28T03:00:38.661Z,16.35
2022-08-28T03:03:07.832Z,14.73
2022-08-28T03:05:37.425Z,21.27
2022-08-28T03:08:06.063Z,18.45
2022-08-28T03:10:35.158Z,15.02
2022-08-28T03:13:04.319Z,16.58
2022-08-28T03:15:32.050Z,15.68
2022-08-28T03:17:59.932Z,15.02
2022-08-28T03:20:29.459Z,14.63
2022-08-28T03:23:15.780Z,15.95
2022-08-28T03:25:43.769Z,14.48
2022-08-28T03:28:12.010Z,16.87
2022-08-28T03:30:39.976Z,17.25
2022-08-28T03:33:08.628Z,15.40
2022-08-28T03:35:38.723Z,16.63
2022-08-28T03:38:08.365Z,15.57
2022-08-28T03:40:40.492Z,18.00
2022-08-28T03:43:08.422Z,16.63
2022-08-28T03:45:36.310Z,18.10
2022-08-28T03:48:04.872Z,14.80
2022-08-28T03:50:32.599Z,16.60
2022-08-28T03:53:02.679Z,14.02
2022-08-28T03:55:30.725Z,17.55
2022-08-28T03:57:58.587Z,17.83
2022-08-28T04:00:26.879Z,14.03
2022-08-28T04:02:55.201Z,18.75
2022-08-28T04:05:23.241Z,16.90
2022-08-28T04:07:53.395Z,15.57
2022-08-28T04:10:22.665Z,14.98
2022-08-28T04:12:50.665Z,17.97
2022-08-28T04:15:18.682Z,21.60
2022-08-28T04:17:47.136Z,20.02
2022-08-28T04:20:15.568Z,13.15
2022-08-28T04:22:44.115Z,17.23
2022-08-28T04:25:13.909Z,14.68
2022-08-28T04:27:43.559Z,16.40
2022-08-28T04:30:12.999Z,15.00
2022-08-28T04:32:41.151Z,17.23
2022-08-28T04:35:12.007Z,13.20
2022-08-28T04:37:40.280Z,21.30
2022-08-28T04:40:10.806Z,17.10
2022-08-28T04:42:40.007Z,16.80
2022-08-28T04:45:10.171Z,20.88
2022-08-28T04:47:38.863Z,16.90
2022-08-28T04:50:08.467Z,19.90
2022-08-28T04:52:36.595Z,16.67
2022-08-28T04:55:06.155Z,16.10
2022-08-28T04:57:36.368Z,20.58
2022-08-28T05:00:07.219Z,21.05
2022-08-28T05:02:36.572Z,15.43
2022-08-28T05:05:05.804Z,21.03
2022-08-28T05:07:34.933Z,20.02
2022-08-28T05:10:03.866Z,20.30
2022-08-28T05:12:33.195Z,14.00
2022-08-28T05:15:01.203Z,17.48
2022-08-28T05:17:29.191Z,19.20
2022-08-28T05:20:03.364Z,14.37
2022-08-28T05:22:32.035Z,18.83
2022-08-28T05:25:01.072Z,19.02
2022-08-28T05:27:28.924Z,20.30
2022-08-28T05:30:01.712Z,18.13
2022-08-28T05:32:29.820Z,16.30
2022-08-28T05:34:57.929Z,24.58
2022-08-28T05:37:27.907Z,18.40
2022-08-28T05:39:56.696Z,16.23
2022-08-28T05:42:30.538Z,14.70
2022-08-28T05:45:00.260Z,13.25
2022-08-28T05:47:28.418Z,15.57
2022-08-28T05:49:57.078Z,15.57
2022-08-28T05:52:24.905Z,17.55
2022-08-28T05:54:54.093Z,14.57
2022-08-28T05:57:22.012Z,12.98
2022-08-28T05:59:50.516Z,20.33
2022-08-28T06:02:18.574Z,10.67
2022-08-28T06:04:47.814Z,13.30
2022-08-28T06:07:16.000Z,14.30
2022-08-28T06:09:43.792Z,11.43
2022-08-28T06:12:13.688Z,14.65
2022-08-28T06:14:42.311Z,14.52
2022-08-28T06:17:10.194Z,13.57
2022-08-28T06:19:41.499Z,13.98
2022-08-28T06:22:12.254Z,19.73
2022-08-28T06:24:40.277Z,13.82
2022-08-28T06:27:09.114Z,11.23
2022-08-28T06:29:39.957Z,17.55
2022-08-28T06:32:09.116Z,14.50
2022-08-28T06:34:37.285Z,12.05
2022-08-28T06:37:05.685Z,9.87
2022-08-28T06:39:33.698Z,12.30
2022-08-28T06:42:01.586Z,9.25
2022-08-28T06:44:32.478Z,11.57
2022-08-28T06:47:02.040Z,16.15
2022-08-28T06:49:29.960Z,14.40
2022-08-28T06:51:58.602Z,7.07
2022-08-28T06:54:26.931Z,11.05
2022-08-28T06:56:54.853Z,11.80
2022-08-28T06:59:22.540Z,18.83
2022-08-28T07:02:52.249Z,14.70
2022-08-28T07:05:21.466Z,10.55
2022-08-28T07:07:50.268Z,10.77
2022-08-28T07:10:18.792Z,12.65
2022-08-28T07:12:47.589Z,14.70
2022-08-28T07:15:17.053Z,11.35
2022-08-28T07:17:45.013Z,10.35
2022-08-28T07:20:13.488Z,10.53
2022-08-28T07:22:42.889Z,8.07
2022-08-28T07:25:11.207Z,10.18
2022-08-28T07:27:40.072Z,12.25
2022-08-28T07:30:10.079Z,11.30
2022-08-28T07:32:38.567Z,14.32
2022-08-28T07:35:07.536Z,8.82
2022-08-28T07:37:37.692Z,10.93
2022-08-28T07:40:12.629Z,9.80
2022-08-28T07:42:58.660Z,9.57
2022-08-28T07:45:26.771Z,10.10
2022-08-28T07:47:54.829Z,7.30
2022-08-28T07:50:22.770Z,8.25
2022-08-28T07:52:50.551Z,11.32
2022-08-28T07:55:19.951Z,8.50
2022-08-28T07:57:49.988Z,7.93
2022-08-28T08:00:19.865Z,9.30
2022-08-28T08:02:47.752Z,6.75
2022-08-28T08:05:15.800Z,9.98
2022-08-28T08:07:44.017Z,12.93
2022-08-28T08:10:20.553Z,10.25
2022-08-28T08:12:50.204Z,10.50
2022-08-28T08:15:20.388Z,8.30
2022-08-28T08:17:48.130Z,7.18
2022-08-28T08:20:16.249Z,9.88
2022-08-28T08:22:44.232Z,7.15
2022-08-28T08:25:12.282Z,5.75
2022-08-28T08:27:43.072Z,8.38
2022-08-28T08:30:14.264Z,9.10
2022-08-28T08:32:42.087Z,9.80
2022-08-28T08:35:12.869Z,5.68
2022-08-28T08:37:40.898Z,9.63
2022-08-28T08:40:11.307Z,7.50
2022-08-28T08:42:39.875Z,6.47
2022-08-28T08:45:15.234Z,7.97
2022-08-28T08:47:45.260Z,7.05
2022-08-28T08:50:19.347Z,5.75
2022-08-28T08:52:56.153Z,12.35
2022-08-28T08:55:27.510Z,9.95
2022-08-28T08:58:02.315Z,7.10
2022-08-28T09:00:36.928Z,4.28
2022-08-28T09:03:08.421Z,7.20
2022-08-28T09:05:50.220Z,7.03
2022-08-28T09:08:28.222Z,6.47
2022-08-28T09:11:02.505Z,7.43
2022-08-28T09:13:42.010Z,7.30
2022-08-28T09:16:21.601Z,6.50
2022-08-28T09:18:50.659Z,10.25
2022-08-28T09:21:31.493Z,8.45
2022-08-28T09:24:05.863Z,7.63
2022-08-28T09:26:38.427Z,6.20
2022-08-28T09:29:09.173Z,6.72
2022-08-28T09:31:41.077Z,6.60
2022-08-28T09:34:22.751Z,9.82
2022-08-28T09:36:50.705Z,8.25
2022-08-28T09:39:20.542Z,6.15
2022-08-28T09:42:19.817Z,9.73
2022-08-28T09:44:50.876Z,11.25
2022-08-28T09:47:48.707Z,7.43
2022-08-28T09:50:20.495Z,6.30
2022-08-28T09:52:48.137Z,6.95
2022-08-28T09:55:19.840Z,7.25
2022-08-28T09:57:47.925Z,6.50
2022-08-28T10:00:15.789Z,8.00
2022-08-28T10:02:49.595Z,8.27
2022-08-28T10:05:20.088Z,8.63
2022-08-28T10:07:57.893Z,8.48
2022-08-28T10:10:29.731Z,7.93
2022-08-28T10:13:04.072Z,5.72
2022-08-28T10:15:41.166Z,6.63
2022-08-28T10:18:23.824Z,7.20
2022-08-28T10:20:56.015Z,7.00
2022-08-28T10:23:29.812Z,9.18
2022-08-28T10:26:03.319Z,6.35
2022-08-28T10:28:41.511Z,10.05
2022-08-28T10:31:17.116Z,5.73
2022-08-28T10:34:04.697Z,4.47
2022-08-28T10:36:35.130Z,10.70
2022-08-28T10:39:14.911Z,9.48
2022-08-28T10:41:46.075Z,10.87
2022-08-28T10:44:19.194Z,7.53
2022-08-28T10:46:50.911Z,11.50
2022-08-28T10:49:31.304Z,13.47
2022-08-28T10:52:02.941Z,7.13
2022-08-28T10:54:35.879Z,5.68
2022-08-28T10:57:07.559Z,4.70
2022-08-28T10:59:42.365Z,7.43
2022-08-28T11:02:13.601Z,11.43
2022-08-28T11:04:43.107Z,13.73
2022-08-28T11:07:13.587Z,7.95
2022-08-28T11:09:44.021Z,6.85
2022-08-28T11:12:36.693Z,4.65
2022-08-28T11:15:37.703Z,7.73
2022-08-28T11:18:31.160Z,5.70
2022-08-28T11:21:05.828Z,6.25
2022-08-28T11:23:38.768Z,8.32
2022-08-28T11:26:09.696Z,6.80
2022-08-28T11:28:47.218Z,4.85
2022-08-28T11:31:31.934Z,4.73
2022-08-28T11:34:01.023Z,7.63
2022-08-28T11:36:59.711Z,8.07
2022-08-28T11:39:27.519Z,6.43
2022-08-28T11:42:36.500Z,5.85
2022-08-28T11:45:04.786Z,8.52
2022-08-28T11:47:47.357Z,6.13
2022-08-28T11:50:23.222Z,4.00
2022-08-28T11:53:19.775Z,9.70
2022-08-28T11:56:00.782Z,7.45
2022-08-28T11:58:34.655Z,8.18
2022-08-28T12:01:04.989Z,5.65
2022-08-28T12:03:35.173Z,7.10
2022-08-28T12:06:03.362Z,6.43
2022-08-28T12:09:05.071Z,8.27
2022-08-28T12:11:52.092Z,6.80
2022-08-28T12:15:02.100Z,8.98
2022-08-28T12:17:51.438Z,7.25
2022-08-28T12:20:26.836Z,7.10
2022-08-28T12:22:56.129Z,6.30
2022-08-28T12:25:29.452Z,5.90
2022-08-28T12:27:58.425Z,6.47
2022-08-28T12:30:31.624Z,6.23
2022-08-28T12:33:07.287Z,4.45
2022-08-28T12:35:35.166Z,5.17
2022-08-28T12:38:04.462Z,6.85
2022-08-28T12:40:50.231Z,4.78
2022-08-28T12:43:28.494Z,4.15
2022-08-28T12:45:57.935Z,5.75
2022-08-28T12:48:27.543Z,6.38
2022-08-28T12:51:00.845Z,3.42
2022-08-28T12:53:41.411Z,9.13
2022-08-28T12:56:11.330Z,4.87
2022-08-28T12:58:40.609Z,4.78
2022-08-28T13:01:12.297Z,4.82
2022-08-28T13:03:48.510Z,10.13
2022-08-28T13:06:24.123Z,10.93
2022-08-28T13:08:54.491Z,10.80
2022-08-28T13:11:23.369Z,4.75
2022-08-28T13:13:51.380Z,6.87
2022-08-28T13:16:38.073Z,11.27
2022-08-28T13:19:15.095Z,11.40
2022-08-28T13:21:58.401Z,12.48
2022-08-28T13:24:44.500Z,14.63
2022-08-28T13:27:25.995Z,12.32
2022-08-28T13:30:00.953Z,7.00
2022-08-28T13:32:30.277Z,16.05
2022-08-28T13:35:09.919Z,5.15
2022-08-28T13:37:43.151Z,3.25
2022-08-28T13:40:30.163Z,5.30
2022-08-28T13:43:06.837Z,6.60
2022-08-28T13:45:42.548Z,6.40
2022-08-28T13:48:11.499Z,5.40
2022-08-28T13:50:39.993Z,4.65
2022-08-28T13:53:07.767Z,7.15
2022-08-28T13:55:35.302Z,4.15
2022-08-28T13:58:04.335Z,6.15
2022-08-28T14:00:33.321Z,3.25
2022-08-28T14:03:18.708Z,3.65
2022-08-28T14:05:46.255Z,5.53
2022-08-28T14:08:13.973Z,4.93
2022-08-28T14:10:42.260Z,5.72
2022-08-28T14:13:11.176Z,4.57
2022-08-28T14:15:38.907Z,7.15
2022-08-28T14:18:06.680Z,7.80
2022-08-28T14:20:34.260Z,3.92
2022-08-28T14:23:01.809Z,8.10
2022-08-28T14:25:29.350Z,4.97
2022-08-28T14:27:56.906Z,3.42
2022-08-28T14:30:26.127Z,7.10
2022-08-28T14:32:53.796Z,15.73
2022-08-28T14:35:21.463Z,7.00
2022-08-28T14:37:48.986Z,6.00
2022-08-28T14:40:16.795Z,8.02
2022-08-28T14:42:44.351Z,5.72
2022-08-28T14:45:12.377Z,11.80
2022-08-28T14:47:41.320Z,14.13
2022-08-28T14:50:10.815Z,10.13
2022-08-28T14:52:38.931Z,6.72
2022-08-28T14:55:07.199Z,10.53
2022-08-28T14:57:38.658Z,6.47
2022-08-28T15:00:07.418Z,21.23
2022-08-28T15:02:45.123Z,6.70
2022-08-28T15:05:13.289Z,4.90
2022-08-28T15:07:40.905Z,5.75
2022-08-28T15:10:11.466Z,8.18
2022-08-28T15:12:39.248Z,5.50
2022-08-28T15:15:10.777Z,5.35
2022-08-28T15:17:38.305Z,9.37
2022-08-28T15:20:08.532Z,5.93
2022-08-28T15:22:36.446Z,8.65
2022-08-28T15:25:05.795Z,7.28
2022-08-28T15:27:33.399Z,10.50
2022-08-28T15:30:01.079Z,4.28
2022-08-28T15:32:28.679Z,4.80
2022-08-28T15:34:56.270Z,4.63
2022-08-28T15:37:25.202Z,3.80
2022-08-28T15:40:10.767Z,4.55
2022-08-28T15:42:38.397Z,5.93
2022-08-28T15:45:07.052Z,4.88
2022-08-28T15:47:34.552Z,9.15
2022-08-28T15:50:02.066Z,11.00
2022-08-28T15:52:33.558Z,10.00
2022-08-28T15:55:01.864Z,8.10
2022-08-28T15:57:29.395Z,3.58
2022-08-28T15:59:56.906Z,5.38
2022-08-28T16:02:25.894Z,6.00
2022-08-28T16:04:54.176Z,4.17
2022-08-28T16:07:23.015Z,5.20
2022-08-28T16:09:52.459Z,4.23
2022-08-28T16:12:20.434Z,4.70
2022-08-28T16:14:48.672Z,3.10
2022-08-28T16:17:16.194Z,3.90
2022-08-28T16:19:44.944Z,2.17
2022-08-28T16:22:15.922Z,3.60
2022-08-28T16:24:43.564Z,3.63
2022-08-28T16:27:15.376Z,2.88
2022-08-28T16:29:43.550Z,4.20
2022-08-28T16:32:11.660Z,5.82
2022-08-28T16:34:39.713Z,7.65
2022-08-28T16:37:07.947Z,2.58
2022-08-28T16:39:36.267Z,6.10
2022-08-28T16:42:04.632Z,5.40
2022-08-28T16:44:34.780Z,5.47
2022-08-28T16:47:02.669Z,4.53
2022-08-28T16:49:30.360Z,4.47
2022-08-28T16:51:57.944Z,7.40
2022-08-28T16:54:25.470Z,4.38
2022-08-28T16:56:53.383Z,4.43
2022-08-28T16:59:23.556Z,5.87
2022-08-28T17:01:54.382Z,7.03
2022-08-28T17:04:22.617Z,5.60
2022-08-28T17:06:50.486Z,6.07
2022-08-28T17:09:20.957Z,6.93
2022-08-28T17:11:51.730Z,7.68
2022-08-28T17:14:20.544Z,4.60
2022-08-28T17:16:49.703Z,4.72
2022-08-28T17:19:21.025Z,5.17
2022-08-28T17:22:11.824Z,6.60
2022-08-28T17:24:39.903Z,3.67
2022-08-28T17:27:08.006Z,5.13
2022-08-28T17:29:39.037Z,5.30
2022-08-28T17:32:08.402Z,4.13
2022-08-28T17:34:38.731Z,6.35
2022-08-28T17:37:06.678Z,7.43
2022-08-28T17:39:34.565Z,3.90
2022-08-28T17:42:04.955Z,6.72
2022-08-28T17:44:32.686Z,7.18
2022-08-28T17:47:01.058Z,5.57
2022-08-28T17:49:28.926Z,5.95
2022-08-28T17:51:59.953Z,4.47
2022-08-28T17:54:28.316Z,5.93
2022-08-28T17:56:56.456Z,5.80
2022-08-28T17:59:25.167Z,4.80
2022-08-28T18:01:53.456Z,4.65
2022-08-28T18:04:24.500Z,3.88
2022-08-28T18:06:54.693Z,9.15
2022-08-28T18:09:24.916Z,7.00
2022-08-28T18:11:53.451Z,8.05
2022-08-28T18:14:22.707Z,5.65
2022-08-28T18:16:51.450Z,8.07
2022-08-28T18:19:19.438Z,4.07
2022-08-28T18:21:48.167Z,7.03
2022-08-28T18:24:16.945Z,4.47
2022-08-28T18:26:47.359Z,6.78
2022-08-28T18:29:15.428Z,6.75
2022-08-28T18:31:43.480Z,5.70
2022-08-28T18:34:11.989Z,5.03
2022-08-28T18:36:41.578Z,4.43
2022-08-28T18:39:09.918Z,5.25
2022-08-28T18:41:44.431Z,4.85
2022-08-28T18:44:15.549Z,4.97
2022-08-28T18:46:44.396Z,4.97
2022-08-28T18:49:13.894Z,5.30
2022-08-28T18:51:44.490Z,4.03
2022-08-28T18:54:16.424Z,5.55
2022-08-28T18:56:44.364Z,6.75
2022-08-28T18:59:14.025Z,4.57
2022-08-28T19:01:42.375Z,6.72
2022-08-28T19:04:10.262Z,8.88
2022-08-28T19:06:39.058Z,3.10
2022-08-28T19:09:08.817Z,3.47
2022-08-28T19:11:39.968Z,4.47
2022-08-28T19:14:08.716Z,4.45
2022-08-28T19:20:20.746Z,4.07
2022-08-28T19:22:49.299Z,2.38
2022-08-28T19:25:27.692Z,5.50
2022-08-28T19:27:59.206Z,5.07
2022-08-28T19:30:29.265Z,2.78
2022-08-28T19:32:57.210Z,3.50
2022-08-28T19:35:26.783Z,2.92
2022-08-28T19:37:54.608Z,5.85
2022-08-28T19:40:23.490Z,2.67
2022-08-28T19:42:51.802Z,8.07
2022-08-28T19:45:20.939Z,3.83
2022-08-28T19:47:48.864Z,2.53
2022-08-28T19:50:16.944Z,4.18
2022-08-28T19:52:46.925Z,4.07
2022-08-28T19:55:17.489Z,7.80
2022-08-28T19:57:46.658Z,5.43
2022-08-28T20:00:17.823Z,3.90
2022-08-28T20:02:45.903Z,4.88
2022-08-28T20:05:13.864Z,5.05
2022-08-28T20:07:41.860Z,5.13
2022-08-28T20:10:12.232Z,5.85
2022-08-28T20:12:41.472Z,5.80
2022-08-28T20:15:17.484Z,4.65
2022-08-28T20:17:50.062Z,6.28
2022-08-28T20:20:19.851Z,5.95
2022-08-28T20:22:47.744Z,3.97
2022-08-28T20:25:18.311Z,5.40
2022-08-28T20:27:46.067Z,3.45
2022-08-28T20:30:14.564Z,3.22
2022-08-28T20:32:44.240Z,2.80
2022-08-28T20:35:13.482Z,6.20
2022-08-28T20:37:44.817Z,5.53
2022-08-28T20:40:15.003Z,4.07
2022-08-28T20:42:44.357Z,2.33
2022-08-28T20:45:14.246Z,3.83
2022-08-28T20:47:42.277Z,6.40
2022-08-28T20:50:10.512Z,1.85
2022-08-28T20:52:38.795Z,3.72
2022-08-28T20:55:08.580Z,5.25
2022-08-28T20:57:36.783Z,3.15
2022-08-28T21:00:08.817Z,4.38
2022-08-28T21:02:37.958Z,3.67
2022-08-28T21:05:06.797Z,2.83
2022-08-28T21:07:35.415Z,3.20
2022-08-28T21:11:07.483Z,7.38
2022-08-28T21:13:35.977Z,3.17
2022-08-28T21:16:09.057Z,4.78
2022-08-28T21:18:38.534Z,2.47
2022-08-28T21:21:14.094Z,3.93
2022-08-28T21:23:43.951Z,7.32
2022-08-28T21:26:12.936Z,1.80
2022-08-28T21:28:41.076Z,5.43
2022-08-28T21:31:14.216Z,7.65
2022-08-28T21:33:43.254Z,2.92
2022-08-28T21:36:13.151Z,4.65
2022-08-28T21:38:41.169Z,5.45
2022-08-28T21:41:15.166Z,2.53
2022-08-28T21:43:44.780Z,5.03
2022-08-28T21:46:16.064Z,7.53
2022-08-28T21:48:48.688Z,5.00
2022-08-28T21:51:17.949Z,3.72
2022-08-28T21:53:45.883Z,3.88
2022-08-28T21:56:17.438Z,7.57
2022-08-28T21:58:45.426Z,5.75
2022-08-28T22:01:16.128Z,5.00
2022-08-28T22:03:44.534Z,4.03
2022-08-28T22:07:13.654Z,11.00
2022-08-28T22:10:42.883Z,8.13
2022-08-28T22:13:13.450Z,5.43
2022-08-28T22:15:44.141Z,6.50
2022-08-28T22:18:16.397Z,4.57
2022-08-28T22:20:59.488Z,5.90
2022-08-28T22:23:29.503Z,7.43
2022-08-28T22:25:57.402Z,5.57
2022-08-28T22:28:25.203Z,7.47
2022-08-28T22:30:53.182Z,5.28
2022-08-28T22:33:22.317Z,5.15
2022-08-28T22:35:52.040Z,8.00
2022-08-28T22:38:20.545Z,5.37
2022-08-28T22:40:48.785Z,6.00
2022-08-28T22:43:18.384Z,6.20
2022-08-28T22:45:47.232Z,4.82
2022-08-28T22:48:15.611Z,6.22
2022-08-28T22:50:48.492Z,5.70
2022-08-28T22:53:18.446Z,4.13
2022-08-28T22:55:47.045Z,3.05
2022-08-28T22:58:15.566Z,5.37
2022-08-28T23:00:43.795Z,3.90
2022-08-28T23:03:11.855Z,7.75
2022-08-28T23:05:39.787Z,3.50
2022-08-28T23:08:09.256Z,9.07
2022-08-28T23:10:58.043Z,4.53
2022-08-28T23:13:25.516Z,5.30
2022-08-28T23:15:53.909Z,7.95
2022-08-28T23:18:21.907Z,4.13
2022-08-28T23:20:50.685Z,5.47
2022-08-28T23:23:21.175Z,8.70
2022-08-28T23:25:49.469Z,4.35
2022-08-28T23:28:17.959Z,6.57
2022-08-28T23:30:49.742Z,6.83
2022-08-28T23:33:23.648Z,4.35
2022-08-28T23:35:52.770Z,7.03
2022-08-28T23:38:25.489Z,5.77
2022-08-28T23:40:54.250Z,7.70
2022-08-28T23:43:22.920Z,5.63
2022-08-28T23:45:51.961Z,8.35
2022-08-28T23:48:19.833Z,3.80
2022-08-28T23:50:48.271Z,7.95
2022-08-28T23:53:16.996Z,8.63
2022-08-28T23:55:46.578Z,6.22
2022-08-28T23:58:18.314Z,6.73
